Time;durP1;ratioP1;P1;durP2;ratioP2;P2;SDS_P1;SDS_P2;PMS_P1;PMS_P2;Temp;Humidity;BMP_temperature;BMP_pressure;BME280_temperature;BME280_humidity;BME280_pressure;Samples;Min_cycle;Max_cycle;Signal;HPM_P1;HPM_P2
2021/01/24 00:01:16;;;;;;;15.48;8.27;;;23.40;38.00;;;;;;6097049;28;81590;-62
2021/01/24 00:04:17;;;;;;;19.17;8.95;;;23.40;38.10;;;;;;6093391;28;82074;-62
2021/01/24 00:07:17;;;;;;;16.58;8.65;;;23.30;37.80;;;;;;6100135;28;81380;-62
2021/01/24 00:10:18;;;;;;;16.83;8.40;;;23.30;37.80;;;;;;6101371;28;80478;-62
2021/01/24 00:13:18;;;;;;;19.00;8.75;;;23.30;37.80;;;;;;6100148;28;80775;-62
2021/01/24 00:16:19;;;;;;;14.88;8.07;;;23.30;37.60;;;;;;6097331;28;80827;-63
2021/01/24 00:19:20;;;;;;;17.38;9.45;;;23.30;37.70;;;;;;6096840;28;80764;-62
2021/01/24 00:22:20;;;;;;;15.15;8.77;;;23.30;37.50;;;;;;6092352;28;81790;-62
2021/01/24 00:25:21;;;;;;;18.48;8.63;;;23.30;37.50;;;;;;6099788;28;81356;-63
2021/01/24 00:28:22;;;;;;;17.48;9.25;;;23.30;37.60;;;;;;6100846;28;81337;-62
2021/01/24 00:31:23;;;;;;;18.27;9.07;;;23.30;37.60;;;;;;6087156;28;80694;-62
2021/01/24 00:34:23;;;;;;;19.63;9.45;;;23.20;37.40;;;;;;6102189;28;81319;-62
2021/01/24 00:37:24;;;;;;;16.42;9.00;;;23.20;37.40;;;;;;6096696;28;80798;-62
2021/01/24 00:40:24;;;;;;;17.60;8.88;;;23.20;37.40;;;;;;6102277;28;81876;-62
2021/01/24 00:43:25;;;;;;;17.23;8.95;;;23.20;37.40;;;;;;6099294;28;80595;-62
2021/01/24 00:46:25;;;;;;;15.23;8.05;;;23.20;37.30;;;;;;6093701;28;80889;-62
2021/01/24 00:49:26;;;;;;;15.60;9.23;;;23.20;37.60;;;;;;6099049;28;80824;-63
2021/01/24 00:52:26;;;;;;;17.50;8.50;;;23.20;37.70;;;;;;6103933;28;80205;-62
2021/01/24 00:55:27;;;;;;;18.20;8.88;;;23.20;37.50;;;;;;6111334;28;82950;-62
2021/01/24 00:58:28;;;;;;;16.48;8.38;;;23.20;37.40;;;;;;6099175;28;80779;-61
2021/01/24 01:01:28;;;;;;;17.45;8.48;;;23.20;37.30;;;;;;6097580;28;81109;-62
2021/01/24 01:04:29;;;;;;;16.25;8.52;;;23.20;37.30;;;;;;6101098;28;80807;-62
2021/01/24 01:07:29;;;;;;;15.15;8.63;;;23.20;37.20;;;;;;6101448;28;80528;-62
2021/01/24 01:10:30;;;;;;;14.05;8.10;;;23.20;37.10;;;;;;6098935;28;80484;-63
2021/01/24 01:13:30;;;;;;;16.65;8.15;;;23.20;37.60;;;;;;6100441;28;80970;-62
2021/01/24 01:16:31;;;;;;;15.20;8.75;;;23.20;37.00;;;;;;6093917;28;80914;-62
2021/01/24 01:19:32;;;;;;;19.55;8.70;;;23.20;36.90;;;;;;6097008;28;81003;-62
2021/01/24 01:22:32;;;;;;;19.02;8.38;;;23.20;36.90;;;;;;6095210;28;80735;-62
2021/01/24 01:25:33;;;;;;;17.75;8.35;;;23.20;36.80;;;;;;6101651;28;81266;-62
2021/01/24 01:28:33;;;;;;;18.67;8.63;;;23.20;36.90;;;;;;6101736;28;80386;-62
2021/01/24 01:31:34;;;;;;;18.23;8.85;;;23.20;36.70;;;;;;6096125;28;81277;-62
2021/01/24 01:34:34;;;;;;;15.75;8.73;;;23.20;36.70;;;;;;6102227;28;80855;-62
2021/01/24 01:37:35;;;;;;;18.05;8.30;;;23.20;36.80;;;;;;6098936;28;81100;-62
2021/01/24 01:40:35;;;;;;;18.80;9.50;;;23.20;36.70;;;;;;6102850;28;80350;-62
2021/01/24 01:43:36;;;;;;;21.35;8.82;;;23.20;36.70;;;;;;6096208;28;87982;-62
2021/01/24 01:46:36;;;;;;;17.15;8.65;;;23.20;36.60;;;;;;6101001;28;80926;-62
2021/01/24 01:49:37;;;;;;;17.45;8.68;;;23.20;36.50;;;;;;6097973;28;80627;-62
2021/01/24 01:52:37;;;;;;;19.98;8.90;;;23.10;36.90;;;;;;6102464;28;80417;-63
2021/01/24 01:55:38;;;;;;;21.02;9.35;;;23.10;36.80;;;;;;6106746;28;81250;-62
2021/01/24 01:58:38;;;;;;;19.45;9.63;;;23.10;36.70;;;;;;6104779;28;80822;-62
2021/01/24 02:01:39;;;;;;;18.42;8.88;;;23.10;36.70;;;;;;6093616;28;80615;-63
2021/01/24 02:04:39;;;;;;;17.25;8.23;;;23.10;36.50;;;;;;6101073;28;81344;-62
2021/01/24 02:07:40;;;;;;;19.23;9.35;;;23.10;36.80;;;;;;6103991;28;81044;-62
2021/01/24 02:10:41;;;;;;;20.75;9.20;;;23.10;36.50;;;;;;6097911;28;81689;-64
2021/01/24 02:13:41;;;;;;;16.83;8.27;;;23.10;36.70;;;;;;6102584;28;81170;-64
2021/01/24 02:16:42;;;;;;;17.25;8.25;;;23.10;36.70;;;;;;6102121;28;80887;-63
2021/01/24 02:19:42;;;;;;;22.35;9.00;;;23.10;37.00;;;;;;6087215;28;80983;-63
2021/01/24 02:22:43;;;;;;;17.75;8.90;;;23.10;36.50;;;;;;6101613;28;81047;-63
2021/01/24 02:25:43;;;;;;;16.38;8.93;;;23.10;36.60;;;;;;6087704;28;80902;-62
2021/01/24 02:28:44;;;;;;;16.88;8.45;;;23.00;36.80;;;;;;6102045;28;80538;-63
2021/01/24 02:31:44;;;;;;;18.58;9.27;;;23.10;36.50;;;;;;6105722;28;80867;-63
2021/01/24 02:34:45;;;;;;;17.83;8.57;;;23.10;36.50;;;;;;6093104;28;80892;-63
2021/01/24 02:37:46;;;;;;;20.27;9.65;;;23.00;36.60;;;;;;6095681;28;80447;-63
2021/01/24 02:40:46;;;;;;;20.27;9.90;;;23.10;36.50;;;;;;6095390;28;81021;-63
2021/01/24 02:43:47;;;;;;;19.25;9.93;;;23.00;36.30;;;;;;6102576;28;81506;-64
2021/01/24 02:46:47;;;;;;;20.52;10.18;;;23.00;36.40;;;;;;6096438;28;81112;-65
2021/01/24 02:49:48;;;;;;;20.20;9.98;;;23.00;36.50;;;;;;6094252;28;83256;-66
2021/01/24 02:52:48;;;;;;;19.70;9.77;;;23.10;36.60;;;;;;6101550;28;83676;-66
2021/01/24 02:55:49;;;;;;;19.05;10.05;;;23.10;36.30;;;;;;6102909;28;82921;-64
2021/01/24 02:58:49;;;;;;;22.02;9.43;;;23.10;36.20;;;;;;6091709;28;84138;-65
2021/01/24 03:01:50;;;;;;;19.30;9.95;;;22.70;35.90;;;;;;6101656;28;82843;-65
2021/01/24 03:04:50;;;;;;;19.05;8.95;;;23.10;36.10;;;;;;6103815;28;82993;-64
2021/01/24 03:07:51;;;;;;;17.25;9.13;;;23.10;36.00;;;;;;6096494;28;81652;-65
2021/01/24 03:10:51;;;;;;;17.70;9.32;;;23.10;36.20;;;;;;6102946;28;80666;-65
2021/01/24 03:13:52;;;;;;;19.15;9.55;;;23.00;36.30;;;;;;6101782;28;80278;-64
2021/01/24 03:16:52;;;;;;;18.85;9.20;;;23.10;36.30;;;;;;6096931;28;80829;-64
2021/01/24 03:19:53;;;;;;;20.30;9.70;;;23.00;36.30;;;;;;6103261;28;83815;-64
2021/01/24 03:22:53;;;;;;;20.88;9.48;;;23.00;36.30;;;;;;6095082;28;80833;-64
2021/01/24 03:25:54;;;;;;;18.30;9.85;;;23.00;36.10;;;;;;6091146;28;80616;-64
2021/01/24 03:28:55;;;;;;;20.13;9.70;;;23.00;36.10;;;;;;6098930;28;80315;-64
2021/01/24 03:31:55;;;;;;;18.92;9.32;;;23.00;36.10;;;;;;6095648;28;80484;-64
2021/01/24 03:34:56;;;;;;;20.55;9.90;;;23.00;36.10;;;;;;6098854;28;88376;-65
2021/01/24 03:37:56;;;;;;;19.52;9.50;;;23.00;36.00;;;;;;6101074;28;80783;-65
2021/01/24 03:40:57;;;;;;;20.52;9.77;;;23.00;36.20;;;;;;6098816;28;81168;-65
2021/01/24 03:43:57;;;;;;;20.90;8.93;;;23.00;36.00;;;;;;6094551;28;80950;-64
2021/01/24 03:46:58;;;;;;;17.25;8.40;;;23.00;36.00;;;;;;6102959;28;80151;-65
2021/01/24 03:49:58;;;;;;;18.55;9.45;;;23.00;36.20;;;;;;6093109;28;80679;-65
2021/01/24 03:52:59;;;;;;;20.67;10.68;;;23.00;36.00;;;;;;6091920;28;80596;-65
2021/01/24 03:55:59;;;;;;;24.08;11.00;;;23.00;36.20;;;;;;6101988;28;83414;-64
2021/01/24 03:59:00;;;;;;;22.80;10.50;;;23.00;35.90;;;;;;6096223;28;85822;-64
2021/01/24 04:02:00;;;;;;;20.67;10.20;;;23.00;36.20;;;;;;6097389;28;83107;-64
2021/01/24 04:05:01;;;;;;;21.92;10.23;;;22.90;35.90;;;;;;6098365;28;83154;-64
2021/01/24 04:08:01;;;;;;;21.25;10.32;;;22.90;35.80;;;;;;6095293;28;84129;-64
2021/01/24 04:11:02;;;;;;;20.70;10.43;;;22.90;35.80;;;;;;6100813;28;83455;-64
2021/01/24 04:14:02;;;;;;;21.05;9.95;;;22.90;36.50;;;;;;6081882;28;84165;-63
2021/01/24 04:17:03;;;;;;;20.85;10.45;;;22.90;35.70;;;;;;6057605;28;84759;-64
2021/01/24 04:20:04;;;;;;;22.05;11.07;;;22.90;35.80;;;;;;6072603;28;83344;-64
2021/01/24 04:23:04;;;;;;;21.23;10.13;;;22.90;36.50;;;;;;6054577;28;84968;-63
2021/01/24 04:26:05;;;;;;;19.75;10.52;;;22.90;35.90;;;;;;6051291;28;84444;-64
2021/01/24 04:29:05;;;;;;;21.15;10.70;;;22.90;35.70;;;;;;6063025;28;83673;-64
2021/01/24 04:32:06;;;;;;;20.77;10.90;;;22.90;35.90;;;;;;6063418;28;83431;-64
2021/01/24 04:35:06;;;;;;;25.58;12.45;;;22.90;35.80;;;;;;6054217;28;84692;-64
2021/01/24 04:38:07;;;;;;;23.77;11.70;;;22.90;35.70;;;;;;6068235;28;82879;-63
2021/01/24 04:41:07;;;;;;;23.00;10.57;;;22.90;35.70;;;;;;6075064;28;85621;-64
2021/01/24 04:44:08;;;;;;;23.05;11.00;;;22.90;35.70;;;;;;6072863;28;83578;-63
2021/01/24 04:47:08;;;;;;;22.25;10.82;;;22.90;35.70;;;;;;6070483;28;83952;-63
2021/01/24 04:50:09;;;;;;;25.60;11.95;;;22.90;35.70;;;;;;6075145;28;83485;-64
2021/01/24 04:53:09;;;;;;;21.45;11.15;;;22.90;35.70;;;;;;6068405;28;85894;-63
2021/01/24 04:56:10;;;;;;;19.25;10.40;;;22.90;35.50;;;;;;6053422;28;83551;-63
2021/01/24 04:59:10;;;;;;;25.48;12.50;;;22.90;35.70;;;;;;6073693;28;83231;-64
2021/01/24 05:02:11;;;;;;;24.35;11.98;;;22.90;35.60;;;;;;6045985;28;83405;-63
2021/01/24 05:05:12;;;;;;;22.73;11.52;;;22.90;35.70;;;;;;6069771;28;92527;-64
2021/01/24 05:08:12;;;;;;;22.92;12.30;;;22.90;35.70;;;;;;6059598;28;83685;-64
2021/01/24 05:11:13;;;;;;;27.30;13.05;;;22.90;35.50;;;;;;6070531;28;84207;-63
2021/01/24 05:14:13;;;;;;;25.08;12.40;;;22.90;35.30;;;;;;6074597;28;84037;-63
2021/01/24 05:17:14;;;;;;;23.45;12.43;;;22.90;35.40;;;;;;6093026;28;83451;-64
2021/01/24 05:20:14;;;;;;;27.38;13.88;;;22.90;35.60;;;;;;6077951;28;83600;-64
2021/01/24 05:23:15;;;;;;;23.90;12.38;;;22.90;35.50;;;;;;6098205;28;83065;-63
2021/01/24 05:26:15;;;;;;;21.70;12.48;;;22.90;35.50;;;;;;6095338;28;83559;-64
2021/01/24 05:29:16;;;;;;;24.88;12.90;;;22.90;35.40;;;;;;6104961;28;83513;-63
2021/01/24 05:32:16;;;;;;;27.63;14.40;;;22.90;35.40;;;;;;6104410;28;83442;-64
2021/01/24 05:35:17;;;;;;;25.65;13.82;;;22.90;35.20;;;;;;6103033;28;83154;-64
2021/01/24 05:38:17;;;;;;;26.63;14.10;;;22.90;35.90;;;;;;6101842;28;83941;-64
2021/01/24 05:41:18;;;;;;;25.27;13.20;;;22.90;35.00;;;;;;6098852;28;83156;-64
2021/01/24 05:44:18;;;;;;;29.95;14.68;;;22.90;34.90;;;;;;6089761;28;83046;-64
2021/01/24 05:47:19;;;;;;;25.63;14.05;;;22.90;35.00;;;;;;6094611;28;83179;-64
2021/01/24 05:50:20;;;;;;;27.77;14.38;;;22.90;35.50;;;;;;6101584;28;83216;-64
2021/01/24 05:53:20;;;;;;;27.70;13.95;;;22.90;34.80;;;;;;6102143;28;83144;-64
2021/01/24 05:56:21;;;;;;;28.95;15.15;;;22.90;34.90;;;;;;6103325;28;83555;-64
2021/01/24 05:59:21;;;;;;;26.17;14.82;;;22.90;34.40;;;;;;6089066;28;83428;-64
2021/01/24 06:02:22;;;;;;;26.95;15.48;;;22.90;34.50;;;;;;6113081;28;84082;-64
2021/01/24 06:05:22;;;;;;;27.85;13.82;;;23.00;34.40;;;;;;6117720;28;83704;-65
2021/01/24 06:08:23;;;;;;;28.85;15.07;;;23.00;34.30;;;;;;6102387;28;83833;-65
2021/01/24 06:11:23;;;;;;;31.35;15.88;;;23.00;34.30;;;;;;6097745;28;84709;-65
2021/01/24 06:14:24;;;;;;;31.52;16.02;;;23.10;34.20;;;;;;6095350;28;83047;-65
2021/01/24 06:17:25;;;;;;;30.52;16.88;;;23.10;34.20;;;;;;6090420;28;83623;-65
2021/01/24 06:20:25;;;;;;;30.23;15.88;;;23.10;34.30;;;;;;6097282;28;83020;-64
2021/01/24 06:23:26;;;;;;;32.08;16.63;;;23.10;34.10;;;;;;6098616;28;83823;-62
2021/01/24 06:26:26;;;;;;;30.45;15.45;;;23.20;34.60;;;;;;6093643;28;83460;-64
2021/01/24 06:29:27;;;;;;;33.60;16.17;;;23.20;34.90;;;;;;6099573;28;92890;-67
2021/01/24 06:32:27;;;;;;;32.80;16.38;;;23.20;34.60;;;;;;6096331;28;83031;-63
2021/01/24 06:35:28;;;;;;;32.17;16.38;;;23.20;34.50;;;;;;6100412;28;83760;-63
2021/01/24 06:38:28;;;;;;;30.85;15.60;;;23.30;35.30;;;;;;6100522;28;83283;-62
2021/01/24 06:41:29;;;;;;;32.65;16.67;;;23.30;34.40;;;;;;6095216;28;82736;-63
2021/01/24 06:44:29;;;;;;;27.00;15.35;;;23.30;34.40;;;;;;6090780;28;83567;-62
2021/01/24 06:47:30;;;;;;;31.70;16.05;;;23.30;35.10;;;;;;6100201;28;83260;-62
2021/01/24 06:50:30;;;;;;;34.58;16.38;;;23.40;35.10;;;;;;6097746;28;83102;-62
2021/01/24 06:53:31;;;;;;;30.63;15.45;;;23.40;35.40;;;;;;6093456;28;83167;-62
2021/01/24 06:56:31;;;;;;;37.08;18.30;;;23.40;35.20;;;;;;6099956;28;83459;-63
2021/01/24 06:59:32;;;;;;;35.65;17.30;;;23.50;35.00;;;;;;6099315;28;83946;-62
2021/01/24 07:02:32;;;;;;;33.55;18.42;;;23.50;35.00;;;;;;6091149;28;84147;-63
2021/01/24 07:05:33;;;;;;;35.42;17.38;;;23.50;35.20;;;;;;6100272;28;83550;-62
2021/01/24 07:08:33;;;;;;;36.42;18.10;;;23.50;35.70;;;;;;6101114;28;84232;-62
2021/01/24 07:11:34;;;;;;;36.47;17.27;;;23.60;36.10;;;;;;6097094;28;83401;-61
2021/01/24 07:14:34;;;;;;;34.88;17.10;;;23.60;36.40;;;;;;6102082;28;83354;-62
2021/01/24 07:17:35;;;;;;;38.83;17.63;;;23.60;36.50;;;;;;6095259;28;83544;-63
2021/01/24 07:20:36;;;;;;;34.53;16.45;;;23.70;36.50;;;;;;6082509;28;84196;-65
2021/01/24 07:23:36;;;;;;;34.78;17.58;;;23.70;36.40;;;;;;6096554;28;85171;-64
2021/01/24 07:26:37;;;;;;;37.78;17.40;;;23.70;36.30;;;;;;6099817;28;83419;-63
2021/01/24 07:29:37;;;;;;;34.08;16.90;;;23.70;36.20;;;;;;6093074;28;83530;-64
2021/01/24 07:32:38;;;;;;;35.67;16.80;;;23.80;36.30;;;;;;6099742;28;83013;-64
2021/01/24 07:35:38;;;;;;;34.88;16.95;;;23.80;36.10;;;;;;6101490;28;83486;-63
2021/01/24 07:38:39;;;;;;;37.97;18.30;;;23.80;36.00;;;;;;6099565;28;83866;-63
2021/01/24 07:41:39;;;;;;;39.03;17.48;;;23.80;35.90;;;;;;6097085;28;83754;-64
2021/01/24 07:44:40;;;;;;;38.45;17.40;;;23.80;35.70;;;;;;6100700;28;83825;-63
2021/01/24 07:47:41;;;;;;;34.80;18.00;;;23.80;36.60;;;;;;6101257;28;84222;-63
2021/01/24 07:50:41;;;;;;;33.25;17.65;;;23.80;35.80;;;;;;6098783;28;83593;-63
2021/01/24 07:53:42;;;;;;;37.10;17.73;;;23.80;36.70;;;;;;6097454;28;83340;-67
2021/01/24 07:56:42;;;;;;;37.65;17.67;;;23.90;37.50;;;;;;6100990;28;83028;-61
2021/01/24 07:59:43;;;;;;;35.30;18.52;;;23.80;37.20;;;;;;6100240;28;84454;-62
2021/01/24 08:02:43;;;;;;;34.03;17.33;;;23.80;36.70;;;;;;6098630;28;83445;-63
2021/01/24 08:05:44;;;;;;;36.42;17.35;;;23.80;36.50;;;;;;6096710;28;84093;-66
2021/01/24 08:08:44;;;;;;;34.53;17.67;;;23.70;36.00;;;;;;6099897;28;83619;-63
2021/01/24 08:11:45;;;;;;;31.77;17.08;;;23.70;35.60;;;;;;6092546;28;84523;-64
2021/01/24 08:14:46;;;;;;;34.35;16.83;;;23.80;35.40;;;;;;6095409;28;84561;-63
2021/01/24 08:17:46;;;;;;;32.88;16.33;;;23.80;35.40;;;;;;6091872;28;90408;-63
2021/01/24 08:20:47;;;;;;;29.25;15.98;;;23.70;35.50;;;;;;6097631;28;83266;-64
2021/01/24 08:23:47;;;;;;;35.15;17.88;;;23.80;35.70;;;;;;6094128;28;83700;-63
2021/01/24 08:26:48;;;;;;;31.98;16.48;;;23.80;36.20;;;;;;6098162;28;83325;-66
2021/01/24 08:29:48;;;;;;;33.55;16.92;;;23.80;36.10;;;;;;6100501;28;83731;-64
2021/01/24 08:32:49;;;;;;;29.63;15.70;;;23.70;35.90;;;;;;6099547;28;83384;-65
2021/01/24 08:35:50;;;;;;;32.45;16.33;;;23.70;36.20;;;;;;6098348;28;83210;-64
2021/01/24 08:38:54;;;;;;;33.03;17.23;;;23.70;35.50;;;;;;6093466;28;90335;-65
2021/01/24 08:41:56;;;;;;;35.10;17.13;;;23.70;36.00;;;;;;6100438;28;84729;-63
2021/01/24 08:44:56;;;;;;;35.65;16.92;;;23.60;35.40;;;;;;6089074;28;83274;-67
2021/01/24 08:47:57;;;;;;;31.05;15.88;;;23.60;35.00;;;;;;6095746;28;83121;-65
2021/01/24 08:50:57;;;;;;;34.58;16.73;;;23.60;35.30;;;;;;6093559;28;83775;-63
2021/01/24 08:53:58;;;;;;;34.10;16.35;;;23.70;35.40;;;;;;6113304;28;85728;-64
2021/01/24 08:56:58;;;;;;;38.38;17.40;;;23.60;35.40;;;;;;6090082;28;83787;-63
2021/01/24 08:59:59;;;;;;;42.35;18.33;;;23.60;36.60;;;;;;6094027;28;85317;-63
2021/01/24 09:03:00;;;;;;;42.67;18.27;;;23.60;36.90;;;;;;6093957;28;83333;-62
2021/01/24 09:06:03;;;;;;;45.13;18.90;;;23.70;37.40;;;;;;6114570;28;84537;-63
2021/01/24 09:09:03;;;;;;;43.88;17.30;;;23.70;38.50;;;;;;6094700;28;83706;-63
2021/01/24 09:12:04;;;;;;;37.67;17.88;;;23.70;39.50;;;;;;6094058;28;85327;-64
2021/01/24 09:15:04;;;;;;;31.80;16.55;;;23.70;40.30;;;;;;6096578;28;84136;-65
2021/01/24 09:18:05;;;;;;;34.38;16.88;;;23.70;40.80;;;;;;6096604;28;83375;-64
2021/01/24 09:21:08;;;;;;;36.25;17.15;;;23.80;41.20;;;;;;6096574;28;84453;-64
2021/01/24 09:24:09;;;;;;;31.55;14.98;;;23.80;41.50;;;;;;6092640;28;83208;-67
2021/01/24 09:27:09;;;;;;;31.02;15.18;;;23.80;41.90;;;;;;6099074;28;83499;-64
2021/01/24 09:30:10;;;;;;;30.23;14.82;;;23.80;42.80;;;;;;6097947;28;83603;-63
2021/01/24 09:33:11;;;;;;;30.88;14.45;;;23.90;42.60;;;;;;6097541;28;82955;-63
2021/01/24 09:36:11;;;;;;;31.75;14.73;;;23.80;42.30;;;;;;6095152;28;83535;-64
2021/01/24 09:39:12;;;;;;;29.98;14.23;;;23.80;42.30;;;;;;6097083;28;83004;-63
2021/01/24 09:42:12;;;;;;;28.00;13.55;;;23.90;42.20;;;;;;6093430;28;84427;-63
2021/01/24 09:45:13;;;;;;;28.42;14.35;;;23.90;42.00;;;;;;6097890;28;83368;-65
2021/01/24 09:48:15;;;;;;;28.58;14.10;;;24.00;41.80;;;;;;6109596;28;84860;-65
2021/01/24 09:51:16;;;;;;;26.02;13.43;;;24.00;41.30;;;;;;6094557;28;83987;-66
2021/01/24 09:54:17;;;;;;;24.70;12.25;;;24.00;40.80;;;;;;6097581;28;82929;-66
2021/01/24 09:57:18;;;;;;;27.42;14.05;;;24.00;40.30;;;;;;6088588;28;83264;-66
2021/01/24 10:00:18;;;;;;;25.77;12.77;;;24.00;40.30;;;;;;6095689;28;83915;-64
2021/01/24 10:03:19;;;;;;;28.02;12.95;;;24.00;39.90;;;;;;6094170;28;83447;-64
2021/01/24 10:06:19;;;;;;;28.50;13.15;;;24.10;39.80;;;;;;6082253;28;83555;-64
2021/01/24 10:09:21;;;;;;;23.05;11.77;;;24.00;39.50;;;;;;6093873;28;83014;-67
2021/01/24 10:12:22;;;;;;;24.35;12.80;;;24.00;39.00;;;;;;6088858;28;83973;-65
2021/01/24 10:15:22;;;;;;;28.77;12.02;;;24.00;38.70;;;;;;6102540;28;83828;-64
2021/01/24 10:18:23;;;;;;;21.30;11.23;;;24.00;38.50;;;;;;6105404;28;83392;-64
2021/01/24 10:21:23;;;;;;;27.95;12.32;;;24.10;38.20;;;;;;6102621;28;84297;-65
2021/01/24 10:24:24;;;;;;;24.90;12.13;;;24.00;37.90;;;;;;6101605;28;84915;-64
2021/01/24 10:27:25;;;;;;;23.70;11.25;;;24.00;38.30;;;;;;6092639;28;84577;-64
2021/01/24 10:30:25;;;;;;;24.02;11.60;;;24.00;37.90;;;;;;6100820;28;83580;-65
2021/01/24 10:33:26;;;;;;;22.88;11.43;;;24.00;37.70;;;;;;6115791;28;83158;-65
2021/01/24 10:36:27;;;;;;;18.90;10.15;;;23.90;37.30;;;;;;6092592;28;84283;-64
2021/01/24 10:39:27;;;;;;;21.10;11.02;;;23.90;37.60;;;;;;6087067;28;83683;-66
2021/01/24 10:42:28;;;;;;;24.13;10.70;;;23.90;36.50;;;;;;6093769;28;83239;-64
2021/01/24 10:45:30;;;;;;;19.55;10.55;;;23.90;36.30;;;;;;6097380;28;83906;-64
2021/01/24 10:48:31;;;;;;;20.08;10.23;;;23.90;36.20;;;;;;6097167;28;84014;-66
2021/01/24 10:51:32;;;;;;;19.10;11.05;;;23.80;36.10;;;;;;6093313;28;83377;-67
2021/01/24 10:54:32;;;;;;;21.20;10.10;;;23.80;35.90;;;;;;6095324;28;83319;-64
2021/01/24 10:57:33;;;;;;;19.00;10.30;;;23.90;35.70;;;;;;6095471;28;83270;-64
2021/01/24 11:00:35;;;;;;;18.52;10.32;;;23.90;35.70;;;;;;6100098;28;83981;-65
2021/01/24 11:03:36;;;;;;;21.20;11.35;;;23.80;35.60;;;;;;6097523;28;83247;-65
2021/01/24 11:06:37;;;;;;;18.33;10.02;;;23.90;35.80;;;;;;6094406;28;83514;-66
2021/01/24 11:09:37;;;;;;;17.85;9.40;;;23.90;36.10;;;;;;6094148;28;83058;-65
2021/01/24 11:12:38;;;;;;;21.65;11.23;;;24.00;36.20;;;;;;6103002;28;82992;-66
2021/01/24 11:15:38;;;;;;;21.17;11.27;;;24.10;36.40;;;;;;6092670;28;83119;-67
2021/01/24 11:18:39;;;;;;;22.83;11.48;;;24.10;36.40;;;;;;6101681;28;83582;-65
2021/01/24 11:21:40;;;;;;;20.25;11.30;;;24.10;36.20;;;;;;6099091;28;85271;-63
2021/01/24 11:24:40;;;;;;;21.40;11.23;;;24.10;36.20;;;;;;6099024;28;89320;-65
2021/01/24 11:27:41;;;;;;;19.00;11.68;;;24.10;36.40;;;;;;6101389;28;83197;-64
2021/01/24 11:30:41;;;;;;;20.92;11.98;;;24.10;37.20;;;;;;6100726;28;83535;-65
2021/01/24 11:33:44;;;;;;;23.48;11.68;;;24.10;36.70;;;;;;6102914;28;83192;-65
2021/01/24 11:36:45;;;;;;;20.77;11.90;;;24.10;36.90;;;;;;6094587;28;83607;-65
2021/01/24 11:39:45;;;;;;;24.80;13.43;;;24.10;36.50;;;;;;6098920;28;89364;-65
2021/01/24 11:42:46;;;;;;;25.08;12.07;;;24.10;36.90;;;;;;6101131;28;83318;-65
2021/01/24 11:45:46;;;;;;;25.50;13.15;;;24.10;36.30;;;;;;6084118;28;83337;-68
2021/01/24 11:48:47;;;;;;;24.92;14.10;;;24.10;36.00;;;;;;6090107;28;83142;-66
2021/01/24 11:51:47;;;;;;;24.67;13.13;;;24.10;35.90;;;;;;6096634;28;84649;-66
2021/01/24 11:54:48;;;;;;;22.15;13.05;;;24.10;35.80;;;;;;6097301;28;83199;-66
2021/01/24 11:57:48;;;;;;;21.27;12.07;;;24.10;35.60;;;;;;6085293;28;83272;-65
2021/01/24 12:00:49;;;;;;;23.10;12.43;;;24.10;35.50;;;;;;6106336;28;83330;-65
2021/01/24 12:03:50;;;;;;;23.77;14.25;;;24.10;35.50;;;;;;6096810;28;83222;-68
2021/01/24 12:06:50;;;;;;;23.73;13.85;;;24.10;35.10;;;;;;6076475;28;87080;-67
2021/01/24 12:09:53;;;;;;;24.33;13.18;;;24.10;35.20;;;;;;6071077;28;86747;-67
2021/01/24 12:12:54;;;;;;;20.77;12.50;;;24.10;35.20;;;;;;6111834;28;83704;-66
2021/01/24 12:15:55;;;;;;;22.08;13.43;;;24.20;34.70;;;;;;6096967;28;83679;-65
2021/01/24 12:18:55;;;;;;;27.27;13.18;;;24.20;34.90;;;;;;6096277;28;84446;-64
2021/01/24 12:21:56;;;;;;;20.90;12.43;;;24.20;34.90;;;;;;6093221;28;83966;-69
2021/01/24 12:24:56;;;;;;;24.35;14.10;;;24.10;34.60;;;;;;6115423;28;84535;-67
2021/01/24 12:27:57;;;;;;;21.15;12.57;;;24.10;34.30;;;;;;6091859;28;83494;-64
2021/01/24 12:30:58;;;;;;;24.55;12.80;;;24.00;34.20;;;;;;6098729;28;83019;-64
2021/01/24 12:33:58;;;;;;;22.70;13.32;;;24.00;34.00;;;;;;6096470;28;83748;-64
2021/01/24 12:36:59;;;;;;;21.27;12.88;;;24.10;34.00;;;;;;6088758;28;84537;-64
2021/01/24 12:39:59;;;;;;;20.58;12.45;;;24.10;33.80;;;;;;6094612;28;83747;-64
2021/01/24 12:43:00;;;;;;;20.25;11.80;;;24.10;33.70;;;;;;6082817;28;83578;-63
2021/01/24 12:46:00;;;;;;;20.92;12.02;;;24.20;33.80;;;;;;6096685;28;89034;-64
2021/01/24 12:49:01;;;;;;;20.92;12.68;;;24.20;33.70;;;;;;6083787;28;83897;-64
2021/01/24 12:52:07;;;;;;;18.98;12.38;;;24.20;33.60;;;;;;6091792;28;83290;-66
2021/01/24 12:55:07;;;;;;;22.30;11.93;;;24.20;33.90;;;;;;6099203;28;83630;-66
2021/01/24 12:58:10;;;;;;;19.80;12.00;;;24.10;33.40;;;;;;6093484;28;83770;-67
2021/01/24 13:01:12;;;;;;;18.70;10.95;;;24.10;33.20;;;;;;6096859;28;83496;-66
2021/01/24 13:04:13;;;;;;;21.65;12.52;;;24.10;33.00;;;;;;6092387;28;83882;-66
2021/01/24 13:07:13;;;;;;;22.20;12.98;;;24.20;32.90;;;;;;6101489;28;83384;-67
2021/01/24 13:10:14;;;;;;;20.23;11.43;;;24.20;32.70;;;;;;6094876;28;84098;-67
2021/01/24 13:13:18;;;;;;;19.48;12.13;;;24.20;33.10;;;;;;6080264;28;83654;-68
2021/01/24 13:16:18;;;;;;;21.40;11.85;;;24.20;32.40;;;;;;6072808;28;83898;-68
2021/01/24 13:19:19;;;;;;;20.20;11.32;;;24.30;32.70;;;;;;6065027;28;84028;-66
2021/01/24 13:22:20;;;;;;;20.48;11.20;;;24.30;32.10;;;;;;6099068;28;84114;-67
2021/01/24 13:25:20;;;;;;;18.42;10.82;;;24.30;31.80;;;;;;6081915;28;86271;-67
2021/01/24 13:28:21;;;;;;;22.48;11.35;;;24.30;31.80;;;;;;6092176;28;83024;-68
2021/01/24 13:31:21;;;;;;;19.60;11.38;;;24.30;32.00;;;;;;6086491;28;84963;-67
2021/01/24 13:34:22;;;;;;;20.10;11.05;;;24.40;31.70;;;;;;6098384;28;83230;-68
2021/01/24 13:37:23;;;;;;;18.75;11.07;;;24.40;31.90;;;;;;6095814;28;84372;-68
2021/01/24 13:40:23;;;;;;;21.33;10.68;;;24.40;32.40;;;;;;6094131;28;83379;-67
2021/01/24 13:43:24;;;;;;;16.58;10.57;;;24.40;32.30;;;;;;6098508;28;83075;-68
2021/01/24 13:46:24;;;;;;;17.50;9.95;;;24.40;32.40;;;;;;6100042;28;83647;-67
2021/01/24 13:49:25;;;;;;;16.73;9.65;;;24.40;31.90;;;;;;6097832;28;83009;-66
2021/01/24 13:52:28;;;;;;;15.18;9.57;;;24.40;31.70;;;;;;6100804;28;81018;-68
2021/01/24 13:55:28;;;;;;;16.73;10.68;;;24.40;31.70;;;;;;6107373;28;80635;-67
2021/01/24 13:58:29;;;;;;;18.90;10.60;;;24.30;31.70;;;;;;6111369;28;83556;-68
2021/01/24 14:01:30;;;;;;;15.52;10.43;;;24.30;31.60;;;;;;6099745;28;85100;-69
2021/01/24 14:04:33;;;;;;;20.05;9.90;;;24.20;31.50;;;;;;6096739;28;89366;-67
2021/01/24 14:07:37;;;;;;;17.67;9.98;;;24.20;31.80;;;;;;6111350;28;81673;-66
2021/01/24 14:10:37;;;;;;;16.77;10.30;;;24.20;31.80;;;;;;6099211;28;83773;-70
2021/01/24 14:13:38;;;;;;;15.43;9.30;;;24.20;31.90;;;;;;6100580;28;83261;-68
2021/01/24 14:16:38;;;;;;;14.40;9.07;;;24.20;32.10;;;;;;6104099;28;81874;-68
2021/01/24 14:19:42;;;;;;;16.42;9.68;;;24.20;32.30;;;;;;6104954;28;80914;-66
2021/01/24 14:22:42;;;;;;;14.45;8.68;;;24.20;32.50;;;;;;6104497;28;81361;-66
2021/01/24 14:25:43;;;;;;;15.70;9.63;;;24.20;32.80;;;;;;6102675;28;80681;-65
2021/01/24 14:28:43;;;;;;;16.80;9.43;;;24.20;33.20;;;;;;6095326;28;81311;-66
2021/01/24 14:31:47;;;;;;;15.27;8.55;;;24.20;33.20;;;;;;6098774;28;80918;-66
2021/01/24 14:34:47;;;;;;;17.23;10.00;;;24.20;33.20;;;;;;6094394;28;80867;-65
2021/01/24 14:37:48;;;;;;;17.75;10.07;;;24.10;33.20;;;;;;6100329;28;83398;-64
2021/01/24 14:40:49;;;;;;;19.30;10.30;;;24.10;33.30;;;;;;6100747;28;83606;-65
2021/01/24 14:43:49;;;;;;;16.33;9.68;;;24.10;33.50;;;;;;6103622;28;83699;-65
2021/01/24 14:46:53;;;;;;;17.85;9.52;;;24.10;33.60;;;;;;6103703;28;82739;-66
2021/01/24 14:49:54;;;;;;;13.65;9.18;;;24.10;33.80;;;;;;6103106;28;81724;-68
2021/01/24 14:52:54;;;;;;;15.35;9.90;;;24.10;33.90;;;;;;6102450;28;80615;-67
2021/01/24 14:55:55;;;;;;;17.15;10.25;;;24.10;34.40;;;;;;6073248;28;81390;-71
2021/01/24 14:58:55;;;;;;;17.25;9.93;;;24.10;34.40;;;;;;6102831;28;83891;-67
2021/01/24 15:01:56;;;;;;;19.33;10.30;;;24.10;34.60;;;;;;6097319;28;82842;-71
2021/01/24 15:04:56;;;;;;;17.23;10.55;;;24.10;35.10;;;;;;6098149;28;83546;-65
2021/01/24 15:07:57;;;;;;;16.88;10.52;;;24.10;34.80;;;;;;6098921;28;83727;-67
2021/01/24 15:10:58;;;;;;;19.35;11.27;;;24.10;34.90;;;;;;6099103;28;84864;-64
2021/01/24 15:13:58;;;;;;;17.15;10.30;;;24.10;35.00;;;;;;6087495;28;83884;-64
2021/01/24 15:16:59;;;;;;;18.33;10.18;;;24.10;34.80;;;;;;6097914;28;84644;-64
2021/01/24 15:19:59;;;;;;;16.42;10.40;;;24.00;34.50;;;;;;6091514;28;84066;-64